createdAt,value
2019-04-11T00:09:45.344Z,4.8
2019-04-11T00:24:57.477Z,4.6
2019-04-11T00:40:09.697Z,4.4
2019-04-11T00:55:17.600Z,4.2
2019-04-11T01:10:34.086Z,4.1
2019-04-11T01:25:46.445Z,4
2019-04-11T01:40:58.202Z,3.7
2019-04-11T01:56:09.383Z,3.4
2019-04-11T02:11:21.297Z,3.2
2019-04-11T02:26:33.489Z,3
2019-04-11T02:41:44.503Z,2.5
2019-04-11T02:56:57.656Z,2.4
2019-04-11T03:12:07.367Z,2.3
2019-04-11T03:27:19.920Z,2.3
2019-04-11T03:42:37.946Z,2.3
2019-04-11T03:58:25.753Z,2.5
2019-04-11T04:13:50.155Z,2.6
2019-04-11T04:29:02.006Z,2.8
2019-04-11T04:44:12.707Z,3
2019-04-11T04:59:24.248Z,3
2019-04-11T05:14:32.109Z,3
2019-04-11T05:29:47.393Z,3.1
2019-04-11T05:44:59.216Z,3.4
2019-04-11T06:00:11.717Z,3.7
2019-04-11T06:15:19.857Z,4.5
2019-04-11T06:30:36.665Z,5.9
2019-04-11T06:45:48.139Z,5.8
2019-04-11T07:01:01.298Z,6.5
2019-04-11T07:16:11.101Z,6.9
2019-04-11T07:31:27.627Z,7.5
2019-04-11T07:46:40.718Z,7.8
2019-04-11T08:01:54.887Z,8.4
2019-04-11T08:17:01.964Z,8.6
2019-04-11T08:32:21.998Z,8.9
2019-04-11T08:47:43.728Z,9.6
2019-04-11T09:03:25.941Z,9
2019-04-11T09:18:52.494Z,9
2019-04-11T09:34:14.401Z,8.9
2019-04-11T09:49:29.002Z,9.1
2019-04-11T10:04:41.712Z,9.2
2019-04-11T10:19:56.087Z,9.3
2019-04-11T10:35:08.165Z,9.2
2019-04-11T10:50:23.667Z,9.2
2019-04-11T11:05:38.118Z,9.8
2019-04-11T11:20:55.540Z,9.4
2019-04-11T11:36:08.929Z,10
2019-04-11T11:51:23.675Z,9.7
2019-04-11T12:06:35.437Z,9.7
2019-04-11T12:21:49.055Z,9.8
2019-04-11T12:37:03.999Z,9.5
2019-04-11T12:52:12.234Z,9.3
2019-04-11T13:07:31.062Z,9.1
2019-04-11T13:22:44.898Z,9
2019-04-11T13:37:58.724Z,8.6
2019-04-11T13:53:12.362Z,8.7
2019-04-11T14:08:26.110Z,8.7
2019-04-11T14:23:41.860Z,8.8
2019-04-11T14:38:53.586Z,8.8
2019-04-11T14:54:07.382Z,8.5
2019-04-11T15:09:16.841Z,8.5
2019-04-11T15:24:37.431Z,8.2
2019-04-11T15:39:47.965Z,7.9
2019-04-11T15:55:02.390Z,7.8
2019-04-11T16:10:14.726Z,7.6
2019-04-11T16:25:29.181Z,7.8
2019-04-11T16:40:41.422Z,7.8
2019-04-11T16:55:54.621Z,7.4
2019-04-11T17:11:07.784Z,7.2
2019-04-11T17:26:16.800Z,6.9
2019-04-11T17:41:33.800Z,6.7
2019-04-11T17:56:46.715Z,6.6
2019-04-11T18:11:59.538Z,6.5
2019-04-11T18:27:02.495Z,6.3
2019-04-11T18:42:25.217Z,6.2
2019-04-11T18:57:37.923Z,6.2
2019-04-11T19:12:50.591Z,6
2019-04-11T19:28:03.297Z,6.1
2019-04-11T19:43:18.891Z,6
2019-04-11T19:58:28.678Z,6
2019-04-11T20:13:41.332Z,6
2019-04-11T20:28:54.020Z,5.8
2019-04-11T20:44:03.233Z,5.9
2019-04-11T20:59:19.189Z,5.8
2019-04-11T21:14:31.807Z,5.7
2019-04-11T21:29:44.356Z,5.7
2019-04-11T21:44:51.569Z,5.8
2019-04-11T22:00:10.297Z,5.7
2019-04-11T22:15:22.158Z,5.7
2019-04-11T22:22:58.241Z,7.6
2019-04-11T22:38:11.038Z,5.6
2019-04-11T22:53:23.601Z,5.6
2019-04-11T23:08:36.125Z,5.6
2019-04-11T23:23:42.713Z,5.5
2019-04-11T23:39:01.093Z,5.4
2019-04-11T23:54:22.683Z,5.2
